sensor_id;sensor_type;location;lat;lon;timestamp;P1;durP1;ratioP1;P2;durP2;ratioP2
56999;SDS011;42891;50.006;21.964;2023-12-28T00:00:00;77.53;;;37.53;;
56999;SDS011;42891;50.006;21.964;2023-12-28T00:04:01;69.00;;;35.55;;
56999;SDS011;42891;50.006;21.964;2023-12-28T00:08:01;74.35;;;36.25;;
56999;SDS011;42891;50.006;21.964;2023-12-28T00:12:01;74.17;;;36.33;;
56999;SDS011;42891;50.006;21.964;2023-12-28T00:16:02;79.53;;;38.08;;
56999;SDS011;42891;50.006;21.964;2023-12-28T00:20:02;70.15;;;36.50;;
56999;SDS011;42891;50.006;21.964;2023-12-28T00:24:03;72.28;;;35.55;;
56999;SDS011;42891;50.006;21.964;2023-12-28T00:28:04;76.10;;;38.45;;
56999;SDS011;42891;50.006;21.964;2023-12-28T00:32:05;70.95;;;34.63;;
56999;SDS011;42891;50.006;21.964;2023-12-28T00:36:06;74.93;;;37.45;;
56999;SDS011;42891;50.006;21.964;2023-12-28T00:40:06;66.72;;;35.22;;
56999;SDS011;42891;50.006;21.964;2023-12-28T00:44:07;70.05;;;34.20;;
56999;SDS011;42891;50.006;21.964;2023-12-28T00:48:09;68.03;;;34.60;;
56999;SDS011;42891;50.006;21.964;2023-12-28T00:52:09;67.90;;;34.72;;
56999;SDS011;42891;50.006;21.964;2023-12-28T00:56:10;66.68;;;33.00;;
56999;SDS011;42891;50.006;21.964;2023-12-28T01:00:10;66.70;;;31.55;;
56999;SDS011;42891;50.006;21.964;2023-12-28T01:04:11;57.78;;;27.55;;
56999;SDS011;42891;50.006;21.964;2023-12-28T01:08:11;61.40;;;26.48;;
56999;SDS011;42891;50.006;21.964;2023-12-28T01:12:11;48.80;;;23.98;;
56999;SDS011;42891;50.006;21.964;2023-12-28T01:16:12;47.20;;;24.85;;
56999;SDS011;42891;50.006;21.964;2023-12-28T01:20:13;39.92;;;20.63;;
56999;SDS011;42891;50.006;21.964;2023-12-28T01:24:13;35.63;;;20.40;;
56999;SDS011;42891;50.006;21.964;2023-12-28T01:28:13;39.55;;;19.00;;
56999;SDS011;42891;50.006;21.964;2023-12-28T01:32:14;36.75;;;18.95;;
56999;SDS011;42891;50.006;21.964;2023-12-28T01:36:16;34.13;;;18.10;;
56999;SDS011;42891;50.006;21.964;2023-12-28T01:40:19;37.27;;;18.33;;
56999;SDS011;42891;50.006;21.964;2023-12-28T01:44:19;34.83;;;18.23;;
56999;SDS011;42891;50.006;21.964;2023-12-28T01:48:19;37.33;;;18.55;;
56999;SDS011;42891;50.006;21.964;2023-12-28T01:52:20;33.00;;;17.77;;
56999;SDS011;42891;50.006;21.964;2023-12-28T01:56:20;38.20;;;18.58;;
56999;SDS011;42891;50.006;21.964;2023-12-28T02:00:21;31.23;;;17.58;;
56999;SDS011;42891;50.006;21.964;2023-12-28T02:04:22;35.90;;;18.00;;
56999;SDS011;42891;50.006;21.964;2023-12-28T02:08:28;32.35;;;18.38;;
56999;SDS011;42891;50.006;21.964;2023-12-28T02:12:28;36.10;;;17.60;;
56999;SDS011;42891;50.006;21.964;2023-12-28T02:16:30;33.50;;;16.75;;
56999;SDS011;42891;50.006;21.964;2023-12-28T02:20:33;29.52;;;16.80;;
56999;SDS011;42891;50.006;21.964;2023-12-28T02:28:54;28.50;;;16.27;;
56999;SDS011;42891;50.006;21.964;2023-12-28T02:33:15;28.27;;;15.73;;
56999;SDS011;42891;50.006;21.964;2023-12-28T02:37:21;28.80;;;16.55;;
56999;SDS011;42891;50.006;21.964;2023-12-28T02:41:23;31.00;;;16.67;;
56999;SDS011;42891;50.006;21.964;2023-12-28T02:45:25;30.73;;;16.23;;
56999;SDS011;42891;50.006;21.964;2023-12-28T02:49:25;29.58;;;15.90;;
56999;SDS011;42891;50.006;21.964;2023-12-28T02:53:26;26.63;;;14.75;;
56999;SDS011;42891;50.006;21.964;2023-12-28T02:57:26;20.35;;;12.93;;
56999;SDS011;42891;50.006;21.964;2023-12-28T03:01:27;24.08;;;12.32;;
56999;SDS011;42891;50.006;21.964;2023-12-28T03:05:28;20.92;;;11.63;;
56999;SDS011;42891;50.006;21.964;2023-12-28T03:09:28;20.07;;;11.47;;
56999;SDS011;42891;50.006;21.964;2023-12-28T03:13:29;16.50;;;10.57;;
56999;SDS011;42891;50.006;21.964;2023-12-28T03:17:29;17.10;;;9.70;;
56999;SDS011;42891;50.006;21.964;2023-12-28T03:21:30;14.80;;;9.32;;
56999;SDS011;42891;50.006;21.964;2023-12-28T03:25:30;14.18;;;9.43;;
56999;SDS011;42891;50.006;21.964;2023-12-28T03:29:31;14.32;;;9.32;;
56999;SDS011;42891;50.006;21.964;2023-12-28T03:33:31;19.80;;;9.90;;
56999;SDS011;42891;50.006;21.964;2023-12-28T03:37:31;16.95;;;9.43;;
56999;SDS011;42891;50.006;21.964;2023-12-28T03:41:32;15.30;;;8.83;;
56999;SDS011;42891;50.006;21.964;2023-12-28T03:45:32;13.75;;;8.25;;
56999;SDS011;42891;50.006;21.964;2023-12-28T03:49:32;13.17;;;8.70;;
56999;SDS011;42891;50.006;21.964;2023-12-28T03:53:32;12.80;;;7.78;;
56999;SDS011;42891;50.006;21.964;2023-12-28T03:57:33;13.20;;;7.10;;
56999;SDS011;42891;50.006;21.964;2023-12-28T04:01:33;11.75;;;7.20;;
56999;SDS011;42891;50.006;21.964;2023-12-28T04:05:33;11.02;;;6.90;;
56999;SDS011;42891;50.006;21.964;2023-12-28T04:09:34;10.18;;;6.70;;
56999;SDS011;42891;50.006;21.964;2023-12-28T04:13:35;12.20;;;6.60;;
56999;SDS011;42891;50.006;21.964;2023-12-28T04:17:35;13.68;;;6.80;;
56999;SDS011;42891;50.006;21.964;2023-12-28T04:21:36;10.38;;;6.70;;
56999;SDS011;42891;50.006;21.964;2023-12-28T04:25:36;10.97;;;6.90;;
56999;SDS011;42891;50.006;21.964;2023-12-28T04:29:37;11.85;;;7.10;;
56999;SDS011;42891;50.006;21.964;2023-12-28T04:33:37;10.70;;;6.10;;
56999;SDS011;42891;50.006;21.964;2023-12-28T04:37:37;8.15;;;5.80;;
56999;SDS011;42891;50.006;21.964;2023-12-28T04:41:37;10.98;;;7.15;;
56999;SDS011;42891;50.006;21.964;2023-12-28T04:45:38;13.13;;;7.17;;
56999;SDS011;42891;50.006;21.964;2023-12-28T04:49:38;10.43;;;6.37;;
56999;SDS011;42891;50.006;21.964;2023-12-28T04:53:39;10.60;;;6.87;;
56999;SDS011;42891;50.006;21.964;2023-12-28T04:57:40;13.80;;;7.47;;
56999;SDS011;42891;50.006;21.964;2023-12-28T05:01:42;14.25;;;7.43;;
56999;SDS011;42891;50.006;21.964;2023-12-28T05:05:42;10.35;;;6.63;;
56999;SDS011;42891;50.006;21.964;2023-12-28T05:09:43;12.23;;;7.13;;
56999;SDS011;42891;50.006;21.964;2023-12-28T05:13:43;8.73;;;6.10;;
56999;SDS011;42891;50.006;21.964;2023-12-28T05:17:43;9.60;;;7.15;;
56999;SDS011;42891;50.006;21.964;2023-12-28T05:21:44;15.02;;;8.50;;
56999;SDS011;42891;50.006;21.964;2023-12-28T05:25:44;10.47;;;7.33;;
56999;SDS011;42891;50.006;21.964;2023-12-28T05:29:46;8.35;;;5.93;;
56999;SDS011;42891;50.006;21.964;2023-12-28T05:33:46;8.37;;;6.80;;
56999;SDS011;42891;50.006;21.964;2023-12-28T05:37:46;11.63;;;5.90;;
56999;SDS011;42891;50.006;21.964;2023-12-28T05:41:47;14.00;;;7.53;;
56999;SDS011;42891;50.006;21.964;2023-12-28T05:45:47;10.52;;;6.75;;
56999;SDS011;42891;50.006;21.964;2023-12-28T05:49:47;11.53;;;7.30;;
56999;SDS011;42891;50.006;21.964;2023-12-28T05:53:48;12.30;;;6.90;;
56999;SDS011;42891;50.006;21.964;2023-12-28T05:57:48;9.33;;;6.43;;
56999;SDS011;42891;50.006;21.964;2023-12-28T06:01:48;11.95;;;7.28;;
56999;SDS011;42891;50.006;21.964;2023-12-28T06:05:49;9.88;;;6.90;;
56999;SDS011;42891;50.006;21.964;2023-12-28T06:09:49;9.10;;;6.97;;
56999;SDS011;42891;50.006;21.964;2023-12-28T06:13:49;12.98;;;7.15;;
56999;SDS011;42891;50.006;21.964;2023-12-28T06:17:49;14.43;;;8.40;;
56999;SDS011;42891;50.006;21.964;2023-12-28T06:21:50;10.82;;;6.47;;
56999;SDS011;42891;50.006;21.964;2023-12-28T06:25:50;13.02;;;7.40;;
56999;SDS011;42891;50.006;21.964;2023-12-28T06:29:50;15.35;;;8.23;;
56999;SDS011;42891;50.006;21.964;2023-12-28T06:33:51;12.37;;;7.53;;
56999;SDS011;42891;50.006;21.964;2023-12-28T06:37:51;10.80;;;7.75;;
56999;SDS011;42891;50.006;21.964;2023-12-28T06:41:51;12.45;;;8.10;;
56999;SDS011;42891;50.006;21.964;2023-12-28T06:45:51;14.88;;;8.13;;
56999;SDS011;42891;50.006;21.964;2023-12-28T06:49:52;14.90;;;8.45;;
56999;SDS011;42891;50.006;21.964;2023-12-28T06:53:53;11.85;;;8.20;;
56999;SDS011;42891;50.006;21.964;2023-12-28T06:57:53;12.98;;;8.02;;
56999;SDS011;42891;50.006;21.964;2023-12-28T07:01:53;14.98;;;8.13;;
56999;SDS011;42891;50.006;21.964;2023-12-28T07:05:53;17.45;;;9.15;;
56999;SDS011;42891;50.006;21.964;2023-12-28T07:09:54;15.13;;;8.77;;
56999;SDS011;42891;50.006;21.964;2023-12-28T07:13:54;12.38;;;7.75;;
56999;SDS011;42891;50.006;21.964;2023-12-28T07:17:54;14.73;;;9.13;;
56999;SDS011;42891;50.006;21.964;2023-12-28T07:21:55;15.07;;;7.87;;
56999;SDS011;42891;50.006;21.964;2023-12-28T07:25:55;14.07;;;9.40;;
56999;SDS011;42891;50.006;21.964;2023-12-28T07:29:55;16.83;;;8.65;;
56999;SDS011;42891;50.006;21.964;2023-12-28T07:33:55;14.27;;;7.88;;
56999;SDS011;42891;50.006;21.964;2023-12-28T07:37:56;15.13;;;8.10;;
56999;SDS011;42891;50.006;21.964;2023-12-28T07:41:56;14.63;;;8.13;;
56999;SDS011;42891;50.006;21.964;2023-12-28T07:45:56;12.17;;;7.97;;
56999;SDS011;42891;50.006;21.964;2023-12-28T07:49:57;12.55;;;7.40;;
56999;SDS011;42891;50.006;21.964;2023-12-28T07:53:57;11.55;;;7.32;;
56999;SDS011;42891;50.006;21.964;2023-12-28T07:57:57;12.15;;;6.70;;
56999;SDS011;42891;50.006;21.964;2023-12-28T08:01:58;13.43;;;7.13;;
56999;SDS011;42891;50.006;21.964;2023-12-28T08:05:58;11.35;;;7.13;;
56999;SDS011;42891;50.006;21.964;2023-12-28T08:09:58;12.80;;;6.73;;
56999;SDS011;42891;50.006;21.964;2023-12-28T08:13:58;10.80;;;7.17;;
56999;SDS011;42891;50.006;21.964;2023-12-28T08:17:59;10.20;;;6.80;;
56999;SDS011;42891;50.006;21.964;2023-12-28T08:21:59;10.70;;;7.05;;
56999;SDS011;42891;50.006;21.964;2023-12-28T08:25:59;12.98;;;6.40;;
56999;SDS011;42891;50.006;21.964;2023-12-28T08:29:59;11.77;;;6.93;;
56999;SDS011;42891;50.006;21.964;2023-12-28T08:34:00;12.95;;;7.30;;
56999;SDS011;42891;50.006;21.964;2023-12-28T08:38:00;10.07;;;6.40;;
56999;SDS011;42891;50.006;21.964;2023-12-28T08:42:00;9.90;;;6.77;;
56999;SDS011;42891;50.006;21.964;2023-12-28T08:46:01;52.03;;;21.25;;
56999;SDS011;42891;50.006;21.964;2023-12-28T08:50:01;9.30;;;6.30;;
56999;SDS011;42891;50.006;21.964;2023-12-28T08:54:01;9.90;;;7.27;;
56999;SDS011;42891;50.006;21.964;2023-12-28T08:58:02;13.68;;;9.27;;
56999;SDS011;42891;50.006;21.964;2023-12-28T09:02:02;11.73;;;6.93;;
56999;SDS011;42891;50.006;21.964;2023-12-28T09:06:03;10.70;;;7.28;;
56999;SDS011;42891;50.006;21.964;2023-12-28T09:10:04;12.10;;;7.43;;
56999;SDS011;42891;50.006;21.964;2023-12-28T09:14:05;11.70;;;7.68;;
56999;SDS011;42891;50.006;21.964;2023-12-28T09:18:05;11.15;;;7.07;;
56999;SDS011;42891;50.006;21.964;2023-12-28T09:22:05;11.00;;;6.47;;
56999;SDS011;42891;50.006;21.964;2023-12-28T09:26:06;14.05;;;6.63;;
56999;SDS011;42891;50.006;21.964;2023-12-28T09:30:07;11.65;;;6.20;;
56999;SDS011;42891;50.006;21.964;2023-12-28T09:34:07;8.60;;;6.38;;
56999;SDS011;42891;50.006;21.964;2023-12-28T09:38:08;10.47;;;6.40;;
56999;SDS011;42891;50.006;21.964;2023-12-28T09:42:09;11.98;;;7.85;;
56999;SDS011;42891;50.006;21.964;2023-12-28T09:46:23;12.38;;;9.07;;
56999;SDS011;42891;50.006;21.964;2023-12-28T09:50:23;20.75;;;11.05;;
56999;SDS011;42891;50.006;21.964;2023-12-28T09:54:26;13.15;;;9.18;;
56999;SDS011;42891;50.006;21.964;2023-12-28T09:58:27;12.85;;;8.30;;
56999;SDS011;42891;50.006;21.964;2023-12-28T10:02:29;17.08;;;10.57;;
56999;SDS011;42891;50.006;21.964;2023-12-28T10:06:30;12.98;;;7.75;;
56999;SDS011;42891;50.006;21.964;2023-12-28T10:10:30;13.13;;;8.10;;
56999;SDS011;42891;50.006;21.964;2023-12-28T10:14:30;10.60;;;6.80;;
56999;SDS011;42891;50.006;21.964;2023-12-28T10:18:31;13.23;;;6.97;;
56999;SDS011;42891;50.006;21.964;2023-12-28T10:22:31;9.20;;;6.47;;
56999;SDS011;42891;50.006;21.964;2023-12-28T10:26:33;9.20;;;5.72;;
56999;SDS011;42891;50.006;21.964;2023-12-28T10:30:33;9.27;;;5.80;;
56999;SDS011;42891;50.006;21.964;2023-12-28T10:34:33;10.40;;;5.33;;
56999;SDS011;42891;50.006;21.964;2023-12-28T10:38:34;9.18;;;5.80;;
56999;SDS011;42891;50.006;21.964;2023-12-28T10:43:01;8.27;;;5.97;;
56999;SDS011;42891;50.006;21.964;2023-12-28T10:47:02;9.55;;;5.68;;
56999;SDS011;42891;50.006;21.964;2023-12-28T10:51:06;9.25;;;5.45;;
56999;SDS011;42891;50.006;21.964;2023-12-28T10:59:35;7.60;;;5.47;;
56999;SDS011;42891;50.006;21.964;2023-12-28T11:03:45;11.82;;;6.55;;
56999;SDS011;42891;50.006;21.964;2023-12-28T11:07:51;8.48;;;6.18;;
56999;SDS011;42891;50.006;21.964;2023-12-28T11:11:54;7.93;;;5.35;;
56999;SDS011;42891;50.006;21.964;2023-12-28T11:15:59;6.90;;;5.13;;
56999;SDS011;42891;50.006;21.964;2023-12-28T11:19:59;8.52;;;5.60;;
56999;SDS011;42891;50.006;21.964;2023-12-28T11:24:00;8.93;;;5.43;;
56999;SDS011;42891;50.006;21.964;2023-12-28T11:28:08;10.45;;;5.40;;
56999;SDS011;42891;50.006;21.964;2023-12-28T11:32:09;9.48;;;5.70;;
56999;SDS011;42891;50.006;21.964;2023-12-28T11:36:10;6.95;;;6.13;;
56999;SDS011;42891;50.006;21.964;2023-12-28T11:40:11;10.70;;;5.97;;
56999;SDS011;42891;50.006;21.964;2023-12-28T11:44:16;9.50;;;5.97;;
56999;SDS011;42891;50.006;21.964;2023-12-28T11:48:26;10.30;;;5.90;;
56999;SDS011;42891;50.006;21.964;2023-12-28T11:52:29;8.43;;;6.40;;
56999;SDS011;42891;50.006;21.964;2023-12-28T11:56:30;9.07;;;6.72;;
56999;SDS011;42891;50.006;21.964;2023-12-28T12:00:32;7.95;;;6.18;;
56999;SDS011;42891;50.006;21.964;2023-12-28T12:04:33;10.27;;;6.93;;
56999;SDS011;42891;50.006;21.964;2023-12-28T12:08:35;8.98;;;5.32;;
56999;SDS011;42891;50.006;21.964;2023-12-28T12:12:35;9.23;;;5.65;;
56999;SDS011;42891;50.006;21.964;2023-12-28T12:16:35;9.18;;;5.57;;
56999;SDS011;42891;50.006;21.964;2023-12-28T12:20:37;11.27;;;6.60;;
56999;SDS011;42891;50.006;21.964;2023-12-28T12:24:39;8.18;;;5.57;;
56999;SDS011;42891;50.006;21.964;2023-12-28T12:28:42;8.43;;;5.47;;
56999;SDS011;42891;50.006;21.964;2023-12-28T12:32:42;8.40;;;5.30;;
56999;SDS011;42891;50.006;21.964;2023-12-28T12:36:43;9.02;;;5.82;;
56999;SDS011;42891;50.006;21.964;2023-12-28T12:40:44;11.13;;;7.18;;
56999;SDS011;42891;50.006;21.964;2023-12-28T12:44:44;9.63;;;5.50;;
56999;SDS011;42891;50.006;21.964;2023-12-28T12:48:53;7.32;;;5.28;;
56999;SDS011;42891;50.006;21.964;2023-12-28T12:52:55;8.00;;;5.03;;
56999;SDS011;42891;50.006;21.964;2023-12-28T12:56:55;9.33;;;4.90;;
56999;SDS011;42891;50.006;21.964;2023-12-28T13:00:57;6.80;;;4.78;;
56999;SDS011;42891;50.006;21.964;2023-12-28T13:04:57;8.35;;;5.00;;
56999;SDS011;42891;50.006;21.964;2023-12-28T13:08:57;8.33;;;4.97;;
56999;SDS011;42891;50.006;21.964;2023-12-28T13:12:58;9.95;;;5.38;;
56999;SDS011;42891;50.006;21.964;2023-12-28T13:16:58;7.10;;;5.03;;
56999;SDS011;42891;50.006;21.964;2023-12-28T13:20:58;11.55;;;6.40;;
56999;SDS011;42891;50.006;21.964;2023-12-28T13:24:59;11.77;;;7.18;;
56999;SDS011;42891;50.006;21.964;2023-12-28T13:28:59;15.05;;;7.90;;
56999;SDS011;42891;50.006;21.964;2023-12-28T13:32:59;9.75;;;4.80;;
56999;SDS011;42891;50.006;21.964;2023-12-28T13:37:00;9.07;;;5.25;;
56999;SDS011;42891;50.006;21.964;2023-12-28T13:41:02;11.90;;;6.78;;
56999;SDS011;42891;50.006;21.964;2023-12-28T13:45:03;8.10;;;5.38;;
56999;SDS011;42891;50.006;21.964;2023-12-28T13:49:04;10.68;;;5.70;;
56999;SDS011;42891;50.006;21.964;2023-12-28T13:53:05;8.98;;;5.80;;
56999;SDS011;42891;50.006;21.964;2023-12-28T13:57:08;9.48;;;5.50;;
56999;SDS011;42891;50.006;21.964;2023-12-28T14:01:08;12.82;;;5.45;;
56999;SDS011;42891;50.006;21.964;2023-12-28T14:05:09;17.48;;;8.27;;
56999;SDS011;42891;50.006;21.964;2023-12-28T14:09:09;21.13;;;11.00;;
56999;SDS011;42891;50.006;21.964;2023-12-28T14:13:10;15.93;;;8.65;;
56999;SDS011;42891;50.006;21.964;2023-12-28T14:17:10;18.60;;;11.63;;
56999;SDS011;42891;50.006;21.964;2023-12-28T14:21:10;14.88;;;8.63;;
56999;SDS011;42891;50.006;21.964;2023-12-28T14:25:13;11.60;;;7.32;;
56999;SDS011;42891;50.006;21.964;2023-12-28T14:29:14;12.95;;;7.85;;
56999;SDS011;42891;50.006;21.964;2023-12-28T14:33:15;13.82;;;7.10;;
56999;SDS011;42891;50.006;21.964;2023-12-28T14:37:16;12.93;;;7.45;;
56999;SDS011;42891;50.006;21.964;2023-12-28T14:41:16;16.65;;;10.93;;
56999;SDS011;42891;50.006;21.964;2023-12-28T14:45:16;16.48;;;10.43;;
56999;SDS011;42891;50.006;21.964;2023-12-28T14:49:17;21.55;;;11.98;;
56999;SDS011;42891;50.006;21.964;2023-12-28T14:53:17;14.10;;;8.60;;
56999;SDS011;42891;50.006;21.964;2023-12-28T14:57:17;14.15;;;9.73;;
56999;SDS011;42891;50.006;21.964;2023-12-28T15:01:18;15.63;;;8.30;;
56999;SDS011;42891;50.006;21.964;2023-12-28T15:05:20;15.95;;;9.52;;
56999;SDS011;42891;50.006;21.964;2023-12-28T15:09:20;15.30;;;10.00;;
56999;SDS011;42891;50.006;21.964;2023-12-28T15:13:21;19.77;;;12.35;;
56999;SDS011;42891;50.006;21.964;2023-12-28T15:17:21;23.10;;;12.93;;
56999;SDS011;42891;50.006;21.964;2023-12-28T15:21:22;17.77;;;10.02;;
56999;SDS011;42891;50.006;21.964;2023-12-28T15:25:22;14.63;;;7.88;;
56999;SDS011;42891;50.006;21.964;2023-12-28T15:29:23;13.00;;;8.73;;
56999;SDS011;42891;50.006;21.964;2023-12-28T15:33:23;12.50;;;8.20;;
56999;SDS011;42891;50.006;21.964;2023-12-28T15:37:23;17.33;;;9.07;;
56999;SDS011;42891;50.006;21.964;2023-12-28T15:41:24;22.90;;;11.60;;
56999;SDS011;42891;50.006;21.964;2023-12-28T15:45:25;17.85;;;11.45;;
56999;SDS011;42891;50.006;21.964;2023-12-28T15:49:27;16.70;;;10.27;;
56999;SDS011;42891;50.006;21.964;2023-12-28T15:53:27;26.77;;;13.00;;
56999;SDS011;42891;50.006;21.964;2023-12-28T15:57:27;18.23;;;9.87;;
56999;SDS011;42891;50.006;21.964;2023-12-28T16:01:27;13.65;;;9.18;;
56999;SDS011;42891;50.006;21.964;2023-12-28T16:05:28;15.67;;;9.07;;
56999;SDS011;42891;50.006;21.964;2023-12-28T16:09:28;17.03;;;10.50;;
56999;SDS011;42891;50.006;21.964;2023-12-28T16:13:29;19.00;;;10.82;;
56999;SDS011;42891;50.006;21.964;2023-12-28T16:17:30;19.50;;;10.43;;
56999;SDS011;42891;50.006;21.964;2023-12-28T16:21:30;15.88;;;9.55;;
56999;SDS011;42891;50.006;21.964;2023-12-28T16:25:31;15.77;;;9.85;;
56999;SDS011;42891;50.006;21.964;2023-12-28T16:29:31;18.70;;;12.83;;
56999;SDS011;42891;50.006;21.964;2023-12-28T16:33:32;16.83;;;10.43;;
56999;SDS011;42891;50.006;21.964;2023-12-28T16:37:32;23.95;;;13.32;;
56999;SDS011;42891;50.006;21.964;2023-12-28T16:41:32;34.40;;;16.70;;
56999;SDS011;42891;50.006;21.964;2023-12-28T16:45:33;31.35;;;16.42;;
56999;SDS011;42891;50.006;21.964;2023-12-28T16:49:33;25.15;;;14.20;;
56999;SDS011;42891;50.006;21.964;2023-12-28T16:53:33;28.20;;;17.43;;
56999;SDS011;42891;50.006;21.964;2023-12-28T16:57:33;69.60;;;35.73;;
56999;SDS011;42891;50.006;21.964;2023-12-28T17:01:34;57.75;;;32.40;;
56999;SDS011;42891;50.006;21.964;2023-12-28T17:05:34;31.05;;;18.83;;
56999;SDS011;42891;50.006;21.964;2023-12-28T17:09:35;29.80;;;19.45;;
56999;SDS011;42891;50.006;21.964;2023-12-28T17:13:35;36.65;;;23.65;;
56999;SDS011;42891;50.006;21.964;2023-12-28T17:17:36;37.45;;;23.45;;
56999;SDS011;42891;50.006;21.964;2023-12-28T17:21:39;17.73;;;12.70;;
56999;SDS011;42891;50.006;21.964;2023-12-28T17:26:02;41.70;;;26.63;;
56999;SDS011;42891;50.006;21.964;2023-12-28T17:30:05;29.95;;;18.17;;
56999;SDS011;42891;50.006;21.964;2023-12-28T17:34:08;38.75;;;21.00;;
56999;SDS011;42891;50.006;21.964;2023-12-28T17:38:09;33.15;;;21.08;;
56999;SDS011;42891;50.006;21.964;2023-12-28T17:42:09;31.55;;;20.92;;
56999;SDS011;42891;50.006;21.964;2023-12-28T17:50:49;32.97;;;23.00;;
56999;SDS011;42891;50.006;21.964;2023-12-28T17:54:50;66.78;;;32.03;;
56999;SDS011;42891;50.006;21.964;2023-12-28T17:58:51;28.90;;;16.40;;
56999;SDS011;42891;50.006;21.964;2023-12-28T18:02:51;33.65;;;23.35;;
56999;SDS011;42891;50.006;21.964;2023-12-28T18:06:51;27.30;;;17.23;;
56999;SDS011;42891;50.006;21.964;2023-12-28T18:10:52;39.80;;;24.73;;
56999;SDS011;42891;50.006;21.964;2023-12-28T18:14:52;30.73;;;19.37;;
56999;SDS011;42891;50.006;21.964;2023-12-28T18:18:53;30.57;;;20.00;;
56999;SDS011;42891;50.006;21.964;2023-12-28T18:22:53;28.83;;;17.75;;
56999;SDS011;42891;50.006;21.964;2023-12-28T18:26:53;28.45;;;17.95;;
56999;SDS011;42891;50.006;21.964;2023-12-28T18:30:54;31.70;;;19.33;;
56999;SDS011;42891;50.006;21.964;2023-12-28T18:34:54;23.00;;;15.27;;
56999;SDS011;42891;50.006;21.964;2023-12-28T18:38:55;26.33;;;16.02;;
56999;SDS011;42891;50.006;21.964;2023-12-28T18:42:55;23.77;;;14.98;;
56999;SDS011;42891;50.006;21.964;2023-12-28T18:46:55;26.07;;;17.03;;
56999;SDS011;42891;50.006;21.964;2023-12-28T18:50:56;28.73;;;18.50;;
56999;SDS011;42891;50.006;21.964;2023-12-28T18:54:56;41.05;;;24.52;;
56999;SDS011;42891;50.006;21.964;2023-12-28T18:58:56;35.72;;;19.52;;
56999;SDS011;42891;50.006;21.964;2023-12-28T19:02:57;42.67;;;20.77;;
56999;SDS011;42891;50.006;21.964;2023-12-28T19:06:57;31.25;;;19.38;;
56999;SDS011;42891;50.006;21.964;2023-12-28T19:10:57;31.77;;;19.75;;
56999;SDS011;42891;50.006;21.964;2023-12-28T19:14:57;47.33;;;24.60;;
56999;SDS011;42891;50.006;21.964;2023-12-28T19:18:58;49.77;;;23.80;;
56999;SDS011;42891;50.006;21.964;2023-12-28T19:22:58;37.53;;;23.70;;
56999;SDS011;42891;50.006;21.964;2023-12-28T19:26:58;37.47;;;20.43;;
56999;SDS011;42891;50.006;21.964;2023-12-28T19:30:58;30.27;;;18.47;;
56999;SDS011;42891;50.006;21.964;2023-12-28T19:34:59;39.15;;;22.95;;
56999;SDS011;42891;50.006;21.964;2023-12-28T19:38:59;32.97;;;20.73;;
56999;SDS011;42891;50.006;21.964;2023-12-28T19:42:59;45.47;;;22.23;;
56999;SDS011;42891;50.006;21.964;2023-12-28T19:47:00;38.47;;;21.48;;
56999;SDS011;42891;50.006;21.964;2023-12-28T19:51:00;39.47;;;22.33;;
56999;SDS011;42891;50.006;21.964;2023-12-28T19:55:00;28.77;;;19.13;;
56999;SDS011;42891;50.006;21.964;2023-12-28T19:59:01;28.35;;;18.02;;
56999;SDS011;42891;50.006;21.964;2023-12-28T20:03:01;33.15;;;18.60;;
56999;SDS011;42891;50.006;21.964;2023-12-28T20:07:01;44.50;;;28.38;;
56999;SDS011;42891;50.006;21.964;2023-12-28T20:11:02;52.33;;;29.77;;
56999;SDS011;42891;50.006;21.964;2023-12-28T20:15:03;93.43;;;58.13;;
56999;SDS011;42891;50.006;21.964;2023-12-28T20:19:09;47.15;;;26.85;;
56999;SDS011;42891;50.006;21.964;2023-12-28T20:23:10;53.38;;;27.52;;
56999;SDS011;42891;50.006;21.964;2023-12-28T20:27:10;39.10;;;22.35;;
56999;SDS011;42891;50.006;21.964;2023-12-28T20:31:10;34.50;;;21.98;;
56999;SDS011;42891;50.006;21.964;2023-12-28T20:35:11;34.40;;;22.60;;
56999;SDS011;42891;50.006;21.964;2023-12-28T20:39:11;25.87;;;17.73;;
56999;SDS011;42891;50.006;21.964;2023-12-28T20:43:11;23.93;;;15.67;;
56999;SDS011;42891;50.006;21.964;2023-12-28T20:47:11;26.63;;;17.95;;
56999;SDS011;42891;50.006;21.964;2023-12-28T20:51:12;21.60;;;16.17;;
56999;SDS011;42891;50.006;21.964;2023-12-28T20:55:12;26.97;;;18.07;;
56999;SDS011;42891;50.006;21.964;2023-12-28T20:59:12;26.25;;;16.50;;
56999;SDS011;42891;50.006;21.964;2023-12-28T21:03:13;49.73;;;27.10;;
56999;SDS011;42891;50.006;21.964;2023-12-28T21:07:13;53.38;;;27.58;;
56999;SDS011;42891;50.006;21.964;2023-12-28T21:11:13;40.97;;;20.58;;
56999;SDS011;42891;50.006;21.964;2023-12-28T21:15:13;51.57;;;23.70;;
56999;SDS011;42891;50.006;21.964;2023-12-28T21:19:14;45.50;;;25.42;;
56999;SDS011;42891;50.006;21.964;2023-12-28T21:23:14;42.73;;;24.60;;
56999;SDS011;42891;50.006;21.964;2023-12-28T21:27:14;47.03;;;27.10;;
56999;SDS011;42891;50.006;21.964;2023-12-28T21:31:15;39.35;;;22.85;;
56999;SDS011;42891;50.006;21.964;2023-12-28T21:35:15;34.20;;;21.73;;
56999;SDS011;42891;50.006;21.964;2023-12-28T21:39:15;50.40;;;30.47;;
56999;SDS011;42891;50.006;21.964;2023-12-28T21:43:15;31.60;;;19.33;;
56999;SDS011;42891;50.006;21.964;2023-12-28T21:47:16;38.15;;;23.88;;
56999;SDS011;42891;50.006;21.964;2023-12-28T21:51:16;38.47;;;23.95;;
56999;SDS011;42891;50.006;21.964;2023-12-28T21:55:18;48.78;;;28.63;;
56999;SDS011;42891;50.006;21.964;2023-12-28T21:59:20;38.75;;;23.70;;
56999;SDS011;42891;50.006;21.964;2023-12-28T22:03:22;33.38;;;21.55;;
56999;SDS011;42891;50.006;21.964;2023-12-28T22:07:22;44.10;;;26.25;;
56999;SDS011;42891;50.006;21.964;2023-12-28T22:11:22;33.20;;;20.88;;
56999;SDS011;42891;50.006;21.964;2023-12-28T22:15:23;46.17;;;28.58;;
56999;SDS011;42891;50.006;21.964;2023-12-28T22:19:23;36.97;;;21.55;;
56999;SDS011;42891;50.006;21.964;2023-12-28T22:23:23;27.90;;;16.98;;
56999;SDS011;42891;50.006;21.964;2023-12-28T22:27:24;22.40;;;14.75;;
56999;SDS011;42891;50.006;21.964;2023-12-28T22:31:24;23.57;;;15.83;;
56999;SDS011;42891;50.006;21.964;2023-12-28T22:35:24;31.87;;;20.07;;
56999;SDS011;42891;50.006;21.964;2023-12-28T22:39:24;26.60;;;16.23;;
56999;SDS011;42891;50.006;21.964;2023-12-28T22:43:25;35.88;;;22.13;;
56999;SDS011;42891;50.006;21.964;2023-12-28T22:47:25;25.10;;;15.77;;
56999;SDS011;42891;50.006;21.964;2023-12-28T22:51:27;30.30;;;18.77;;
56999;SDS011;42891;50.006;21.964;2023-12-28T22:55:27;25.13;;;16.10;;
56999;SDS011;42891;50.006;21.964;2023-12-28T22:59:28;41.40;;;24.73;;
56999;SDS011;42891;50.006;21.964;2023-12-28T23:03:28;23.53;;;16.00;;
56999;SDS011;42891;50.006;21.964;2023-12-28T23:07:28;23.90;;;15.27;;
56999;SDS011;42891;50.006;21.964;2023-12-28T23:11:29;22.53;;;15.50;;
56999;SDS011;42891;50.006;21.964;2023-12-28T23:15:29;24.27;;;17.45;;
56999;SDS011;42891;50.006;21.964;2023-12-28T23:19:29;19.65;;;14.48;;
56999;SDS011;42891;50.006;21.964;2023-12-28T23:23:30;21.30;;;13.77;;
56999;SDS011;42891;50.006;21.964;2023-12-28T23:27:30;18.98;;;13.65;;
56999;SDS011;42891;50.006;21.964;2023-12-28T23:31:30;19.90;;;13.27;;